createdAt,value
2018-06-01T00:00:43.197Z,98409.60
2018-06-01T00:03:11.310Z,98412.23
2018-06-01T00:05:39.443Z,98410.08
2018-06-01T00:08:07.574Z,98405.98
2018-06-01T00:10:35.686Z,98406.20
2018-06-01T00:13:03.818Z,98401.37
2018-06-01T00:15:31.943Z,98399.51
2018-06-01T00:18:00.060Z,98403.56
2018-06-01T00:20:28.176Z,98396.94
2018-06-01T00:22:56.291Z,98401.41
2018-06-01T00:25:24.408Z,98401.08
2018-06-01T00:27:52.543Z,98393.90
2018-06-01T00:30:20.643Z,98387.20
2018-06-01T00:32:48.755Z,98384.31
2018-06-01T00:35:16.865Z,98381.68
2018-06-01T00:37:44.993Z,98378.24
2018-06-01T00:40:13.099Z,98386.77
2018-06-01T00:42:41.235Z,98384.89
2018-06-01T00:45:09.379Z,98390.77
2018-06-01T00:47:37.503Z,98387.48
2018-06-01T00:50:05.623Z,98382.14
2018-06-01T00:52:33.754Z,98383.30
2018-06-01T00:55:13.698Z,98377.00
2018-06-01T00:57:41.838Z,98367.28
2018-06-01T01:00:09.945Z,98374.89
2018-06-01T01:02:38.071Z,98377.69
2018-06-01T01:05:06.272Z,98378.48
2018-06-01T01:07:34.393Z,98370.11
2018-06-01T01:10:02.528Z,98376.55
2018-06-01T01:12:30.655Z,98379.25
2018-06-01T01:14:58.756Z,98379.03
2018-06-01T01:17:27.117Z,98381.40
2018-06-01T01:19:55.253Z,98378.50
2018-06-01T01:22:23.380Z,98376.01
2018-06-01T01:24:51.997Z,98369.63
2018-06-01T01:27:20.165Z,98373.96
2018-06-01T01:29:48.291Z,98379.03
2018-06-01T01:32:16.431Z,98381.94
2018-06-01T01:34:44.555Z,98382.41
2018-06-01T01:37:12.667Z,98384.30
2018-06-01T01:39:40.841Z,98388.97
2018-06-01T01:42:08.966Z,98388.09
2018-06-01T01:44:37.104Z,98392.07
2018-06-01T01:47:05.242Z,98391.59
2018-06-01T01:49:33.360Z,98390.30
2018-06-01T01:52:01.487Z,98395.44
2018-06-01T01:54:29.627Z,98396.30
2018-06-01T01:56:57.758Z,98398.34
2018-06-01T01:59:25.863Z,98406.11
2018-06-01T02:01:54.020Z,98406.63
2018-06-01T02:04:22.137Z,98414.42
2018-06-01T02:06:50.259Z,98416.32
2018-06-01T02:09:18.414Z,98415.14
2018-06-01T02:11:46.530Z,98416.49
2018-06-01T02:14:14.652Z,98423.13
2018-06-01T02:16:42.794Z,98425.83
2018-06-01T02:19:10.915Z,98436.64
2018-06-01T02:21:39.041Z,98440.61
2018-06-01T02:24:07.179Z,98437.56
2018-06-01T02:26:35.297Z,98439.11
2018-06-01T02:29:03.429Z,98449.34
2018-06-01T02:31:31.567Z,98443.28
2018-06-01T02:33:59.697Z,98451.98
2018-06-01T02:36:27.845Z,98455.77
2018-06-01T02:38:56.172Z,98463.80
2018-06-01T02:41:24.288Z,98455.48
2018-06-01T02:43:52.411Z,98460.64
2018-06-01T02:46:20.547Z,98462.94
2018-06-01T02:48:48.733Z,98460.78
2018-06-01T02:51:16.865Z,98472.05
2018-06-01T02:53:44.983Z,98472.41
2018-06-01T02:56:13.097Z,98482.41
2018-06-01T02:58:41.230Z,98482.90
2018-06-01T03:01:09.422Z,98490.22
2018-06-01T03:03:37.565Z,98498.91
2018-06-01T03:06:05.695Z,98502.02
2018-06-01T03:08:33.831Z,98507.19
2018-06-01T03:11:01.943Z,98508.27
2018-06-01T03:13:30.072Z,98509.13
2018-06-01T03:15:58.247Z,98514.94
2018-06-01T03:18:26.369Z,98523.66
2018-06-01T03:20:54.486Z,98520.33
2018-06-01T03:23:22.602Z,98525.83
2018-06-01T03:25:50.722Z,98531.91
2018-06-01T03:28:18.846Z,98527.77
2018-06-01T03:30:46.990Z,98536.13
2018-06-01T03:33:15.113Z,98532.58
2018-06-01T03:35:43.293Z,98535.48
2018-06-01T03:38:11.442Z,98538.80
2018-06-01T03:40:39.563Z,98545.08
2018-06-01T03:43:07.689Z,98547.33
2018-06-01T03:45:35.818Z,98547.73
2018-06-01T03:48:03.930Z,98544.44
2018-06-01T03:50:32.083Z,98552.31
2018-06-01T03:53:00.219Z,98554.06
2018-06-01T03:55:28.335Z,98554.83
2018-06-01T03:57:56.465Z,98560.44
2018-06-01T04:00:24.597Z,98567.48
2018-06-01T04:02:52.771Z,98575.03
2018-06-01T04:05:20.853Z,98576.75
2018-06-01T04:07:48.994Z,98582.75
2018-06-01T04:10:17.132Z,98581.96
2018-06-01T04:12:45.249Z,98589.05
2018-06-01T04:15:13.571Z,98595.55
2018-06-01T04:17:41.687Z,98592.53
2018-06-01T04:20:09.845Z,98602.55
2018-06-01T04:22:37.961Z,98600.67
2018-06-01T04:25:06.140Z,98606.77
2018-06-01T04:27:34.294Z,98609.25
2018-06-01T04:30:02.439Z,98610.00
2018-06-01T04:32:30.560Z,98617.04
2018-06-01T04:34:58.668Z,98615.83
2018-06-01T04:37:26.854Z,98618.64
2018-06-01T04:39:54.979Z,98609.98
2018-06-01T04:42:23.144Z,98612.93
2018-06-01T04:44:52.180Z,98617.73
2018-06-01T04:47:20.303Z,98614.80
2018-06-01T04:49:48.429Z,98611.33
2018-06-01T04:52:16.570Z,98610.56
2018-06-01T04:54:44.703Z,98618.07
2018-06-01T04:57:12.836Z,98614.44
2018-06-01T04:59:40.980Z,98613.73
2018-06-01T05:02:09.098Z,98615.73
2018-06-01T05:04:37.222Z,98616.13
2018-06-01T05:07:05.368Z,98620.63
2018-06-01T05:09:33.518Z,98630.05
2018-06-01T05:12:01.666Z,98628.99
2018-06-01T05:14:29.801Z,98632.91
2018-06-01T05:16:57.924Z,98634.42
2018-06-01T05:19:26.047Z,98643.94
2018-06-01T05:21:54.197Z,98645.40
2018-06-01T05:24:22.315Z,98648.27
2018-06-01T05:26:50.429Z,98646.94
2018-06-01T05:29:18.576Z,98654.31
2018-06-01T05:31:46.714Z,98659.87
2018-06-01T05:34:14.866Z,98657.13
2018-06-01T05:36:43.008Z,98651.53
2018-06-01T05:39:13.525Z,98654.64
2018-06-01T05:41:41.652Z,98664.94
2018-06-01T05:44:09.785Z,98658.84
2018-06-01T05:46:37.930Z,98669.80
2018-06-01T05:49:06.144Z,98669.93
2018-06-01T05:51:34.260Z,98667.84
2018-06-01T05:54:02.400Z,98670.30
2018-06-01T05:56:30.547Z,98671.41
2018-06-01T05:58:58.684Z,98671.97
2018-06-01T06:01:26.817Z,98670.15
2018-06-01T06:03:54.951Z,98667.03
2018-06-01T06:06:23.114Z,98663.53
2018-06-01T06:08:51.220Z,98666.17
2018-06-01T06:11:19.330Z,98664.14
2018-06-01T06:13:47.468Z,98665.56
2018-06-01T06:16:15.601Z,98663.23
2018-06-01T06:18:43.720Z,98673.73
2018-06-01T06:21:11.854Z,98668.63
2018-06-01T06:23:39.979Z,98672.25
2018-06-01T06:26:08.129Z,98677.01
2018-06-01T06:28:36.616Z,98672.09
2018-06-01T06:31:04.734Z,98675.48
2018-06-01T06:33:32.860Z,98680.64
2018-06-01T06:36:00.990Z,98685.85
2018-06-01T06:38:29.112Z,98679.51
2018-06-01T06:40:57.228Z,98686.75
2018-06-01T06:43:25.368Z,98695.80
2018-06-01T06:45:53.479Z,98691.88
2018-06-01T06:48:21.640Z,98701.10
2018-06-01T06:50:49.784Z,98699.09
2018-06-01T06:53:17.894Z,98703.05
2018-06-01T06:55:46.006Z,98705.07
2018-06-01T06:58:14.193Z,98700.77
2018-06-01T07:00:42.300Z,98708.33
2018-06-01T07:03:10.432Z,98710.85
2018-06-01T07:05:38.602Z,98716.31
2018-06-01T07:08:06.710Z,98712.92
2018-06-01T07:10:34.874Z,98719.56
2018-06-01T07:13:02.972Z,98714.61
2018-06-01T07:15:31.089Z,98720.75
2018-06-01T07:17:59.205Z,98720.48
2018-06-01T07:20:27.331Z,98722.00
2018-06-01T07:22:55.454Z,98720.78
2018-06-01T07:25:23.630Z,98717.63
2018-06-01T07:27:51.760Z,98719.58
2018-06-01T07:30:19.880Z,98722.92
2018-06-01T07:32:48.020Z,98720.66
2018-06-01T07:35:16.145Z,98719.87
2018-06-01T07:37:44.279Z,98725.82
2018-06-01T07:40:12.373Z,98730.61
2018-06-01T07:42:40.517Z,98726.35
2018-06-01T07:45:08.637Z,98728.60
2018-06-01T07:47:36.772Z,98724.70
2018-06-01T07:50:04.940Z,98724.91
2018-06-01T07:52:33.069Z,98720.48
2018-06-01T07:55:01.201Z,98733.47
2018-06-01T07:57:29.339Z,98734.15
2018-06-01T07:59:57.450Z,98734.56
2018-06-01T08:02:25.571Z,98728.13
2018-06-01T08:04:53.683Z,98731.30
2018-06-01T08:07:21.792Z,98741.17
2018-06-01T08:09:50.346Z,98740.60
2018-06-01T08:12:18.563Z,98737.54
2018-06-01T08:14:46.718Z,98741.25
2018-06-01T08:17:14.827Z,98738.08
2018-06-01T08:19:42.949Z,98748.05
2018-06-01T08:22:11.059Z,98748.17
2018-06-01T08:24:39.170Z,98750.69
2018-06-01T08:27:07.338Z,98753.31
2018-06-01T08:29:35.470Z,98757.98
2018-06-01T08:32:03.584Z,98753.84
2018-06-01T08:34:31.717Z,98755.58
2018-06-01T08:36:59.825Z,98755.12
2018-06-01T08:39:27.971Z,98749.83
2018-06-01T08:41:56.619Z,98769.48
2018-06-01T08:44:24.727Z,98749.05
2018-06-01T08:46:52.834Z,98754.97
2018-06-01T08:49:20.967Z,98754.86
2018-06-01T08:51:49.084Z,98751.07
2018-06-01T08:54:17.186Z,98753.72
2018-06-01T08:56:45.676Z,98749.63
2018-06-01T08:59:14.706Z,98753.80
2018-06-01T09:01:44.672Z,98750.86
2018-06-01T09:04:12.861Z,98749.52
2018-06-01T09:06:40.985Z,98748.71
2018-06-01T09:09:09.112Z,98756.52
2018-06-01T09:11:37.306Z,98757.02
2018-06-01T09:14:05.422Z,98759.39
2018-06-01T09:16:33.544Z,98767.30
2018-06-01T09:19:01.665Z,98762.72
2018-06-01T09:21:29.821Z,98771.09
2018-06-01T09:23:57.949Z,98780.33
2018-06-01T09:26:26.121Z,98783.95
2018-06-01T09:28:54.277Z,98784.48
2018-06-01T09:31:22.409Z,98795.09
2018-06-01T09:33:50.552Z,98808.84
2018-06-01T09:36:18.706Z,98806.11
2018-06-01T09:38:46.871Z,98802.57
2018-06-01T09:41:15.032Z,98801.76
2018-06-01T09:43:43.135Z,98799.64
2018-06-01T09:46:11.303Z,98791.56
2018-06-01T09:48:39.427Z,98784.63
2018-06-01T09:51:07.579Z,98783.89
2018-06-01T09:53:35.722Z,98781.15
2018-06-01T09:56:03.859Z,98790.06
2018-06-01T09:58:32.145Z,98801.26
2018-06-01T10:01:00.302Z,98792.36
2018-06-01T10:03:28.479Z,98794.75
2018-06-01T10:05:56.592Z,98805.63
2018-06-01T10:08:24.731Z,98804.92
2018-06-01T10:10:52.865Z,98801.39
2018-06-01T10:13:21.063Z,98792.80
2018-06-01T10:15:49.175Z,98794.73
2018-06-01T10:18:17.371Z,98798.95
2018-06-01T10:20:45.477Z,98801.75
2018-06-01T10:23:14.666Z,98792.67
2018-06-01T10:25:42.803Z,98799.45
2018-06-01T10:28:10.914Z,98798.38
2018-06-01T10:30:39.103Z,98796.58
2018-06-01T10:33:07.665Z,98801.33
2018-06-01T10:35:35.809Z,98801.62
2018-06-01T10:38:03.965Z,98800.90
2018-06-01T10:40:32.088Z,98802.83
2018-06-01T10:43:00.202Z,98802.81
2018-06-01T10:45:28.338Z,98801.86
2018-06-01T10:47:56.482Z,98802.93
2018-06-01T10:50:30.561Z,98798.38
2018-06-01T10:52:58.719Z,98800.11
2018-06-01T10:55:26.850Z,98794.39
2018-06-01T10:57:55.039Z,98793.19
2018-06-01T11:00:23.195Z,98787.81
2018-06-01T11:02:51.346Z,98782.73
2018-06-01T11:05:19.517Z,98787.87
2018-06-01T11:07:47.667Z,98785.75
2018-06-01T11:10:15.794Z,98783.02
2018-06-01T11:12:43.920Z,98775.13
2018-06-01T11:15:13.050Z,98773.89
2018-06-01T11:17:41.186Z,98767.77
2018-06-01T11:20:09.299Z,98766.91
2018-06-01T11:22:38.070Z,98775.08
2018-06-01T11:25:06.279Z,98776.61
2018-06-01T11:27:34.395Z,98769.88
2018-06-01T11:30:02.590Z,98772.13
2018-06-01T11:32:30.755Z,98756.36
2018-06-01T11:34:58.865Z,98759.98
2018-06-01T11:37:27.043Z,98752.10
2018-06-01T11:39:55.246Z,98747.30
2018-06-01T11:42:23.448Z,98756.73
2018-06-01T11:44:51.633Z,98756.69
2018-06-01T11:47:19.779Z,98748.90
2018-06-01T11:49:47.980Z,98748.06
2018-06-01T11:52:16.209Z,98747.13
2018-06-01T11:54:44.355Z,98736.40
2018-06-01T11:57:13.421Z,98745.14
2018-06-01T11:59:41.610Z,98734.23
2018-06-01T12:02:09.789Z,98735.87
2018-06-01T12:04:37.922Z,98743.50
2018-06-01T12:07:06.199Z,98747.56
2018-06-01T12:09:37.260Z,98738.25
2018-06-01T12:12:05.518Z,98741.59
2018-06-01T12:14:36.208Z,98738.61
2018-06-01T12:17:04.668Z,98738.42
2018-06-01T12:19:32.835Z,98739.77
2018-06-01T12:22:01.363Z,98738.56
2018-06-01T12:24:29.499Z,98742.19
2018-06-01T12:26:57.616Z,98741.12
2018-06-01T12:29:25.819Z,98736.12
2018-06-01T12:31:53.978Z,98733.52
2018-06-01T12:34:22.147Z,98733.22
2018-06-01T12:36:50.374Z,98734.45
2018-06-01T12:39:18.567Z,98729.11
2018-06-01T12:41:46.716Z,98733.45
2018-06-01T12:44:14.879Z,98734.29
2018-06-01T12:46:43.002Z,98726.84
2018-06-01T12:49:11.143Z,98718.33
2018-06-01T12:51:39.292Z,98722.38
2018-06-01T12:54:07.514Z,98718.02
2018-06-01T12:56:35.580Z,98711.58
2018-06-01T12:59:03.739Z,98712.42
2018-06-01T13:01:31.869Z,98708.17
2018-06-01T13:03:59.979Z,98698.14
2018-06-01T13:06:28.155Z,98696.78
2018-06-01T13:08:56.320Z,98698.36
2018-06-01T13:11:24.433Z,98694.00
2018-06-01T13:13:52.636Z,98692.32
2018-06-01T13:16:20.994Z,98694.23
2018-06-01T13:18:49.106Z,98688.18
2018-06-01T13:21:17.304Z,98689.23
2018-06-01T13:23:45.443Z,98693.00
2018-06-01T13:26:13.545Z,98691.61
2018-06-01T13:28:41.687Z,98684.73
2018-06-01T13:31:09.835Z,98686.44
2018-06-01T13:33:37.948Z,98680.28
2018-06-01T13:36:06.112Z,98680.03
2018-06-01T13:38:34.221Z,98683.89
2018-06-01T13:41:02.335Z,98677.81
2018-06-01T13:43:30.566Z,98667.81
2018-06-01T13:45:59.505Z,98661.50
2018-06-01T13:48:27.703Z,98648.97
2018-06-01T13:50:55.824Z,98648.14
2018-06-01T13:53:24.001Z,98657.10
2018-06-01T13:55:52.116Z,98645.78
2018-06-01T13:58:20.306Z,98644.58
2018-06-01T14:00:48.426Z,98650.24
2018-06-01T14:03:16.574Z,98639.73
2018-06-01T14:05:44.712Z,98643.53
2018-06-01T14:08:12.847Z,98643.98
2018-06-01T14:10:40.953Z,98640.84
2018-06-01T14:13:09.106Z,98646.13
2018-06-01T14:15:37.282Z,98646.81
2018-06-01T14:18:05.439Z,98643.59
2018-06-01T14:20:33.566Z,98643.40
2018-06-01T14:23:01.690Z,98631.58
2018-06-01T14:25:29.852Z,98640.20
2018-06-01T14:27:59.023Z,98644.44
2018-06-01T14:30:27.135Z,98635.84
2018-06-01T14:32:55.260Z,98629.67
2018-06-01T14:35:23.415Z,98637.89
2018-06-01T14:37:51.542Z,98634.22
2018-06-01T14:40:19.680Z,98635.98
2018-06-01T14:42:48.514Z,98635.61
2018-06-01T14:45:16.668Z,98635.10
2018-06-01T14:47:44.772Z,98626.59
2018-06-01T14:50:12.897Z,98624.80
2018-06-01T14:52:41.021Z,98626.19
2018-06-01T14:55:09.136Z,98628.94
2018-06-01T14:57:37.267Z,98624.67
2018-06-01T15:00:05.410Z,98626.36
2018-06-01T15:02:33.505Z,98625.61
2018-06-01T15:05:01.676Z,98641.32
2018-06-01T15:07:30.723Z,98628.70
2018-06-01T15:09:58.844Z,98624.19
2018-06-01T15:12:27.007Z,98616.13
2018-06-01T15:14:55.281Z,98617.84
2018-06-01T15:17:23.377Z,98610.02
2018-06-01T15:19:51.562Z,98607.22
2018-06-01T15:22:19.677Z,98596.63
2018-06-01T15:24:47.818Z,98603.17
2018-06-01T15:27:15.972Z,98596.54
2018-06-01T15:29:44.108Z,98592.91
2018-06-01T15:32:12.242Z,98597.76
2018-06-01T15:34:40.384Z,98590.69
2018-06-01T15:37:08.499Z,98588.59
2018-06-01T15:39:36.647Z,98598.54
2018-06-01T15:42:04.772Z,98589.36
2018-06-01T15:44:32.887Z,98586.22
2018-06-01T15:47:01.036Z,98581.59
2018-06-01T15:49:29.188Z,98588.58
2018-06-01T15:51:57.304Z,98587.74
2018-06-01T15:54:25.463Z,98585.95
2018-06-01T15:56:53.626Z,98595.97
2018-06-01T15:59:21.770Z,98595.27
2018-06-01T16:01:50.907Z,98604.67
2018-06-01T16:04:19.051Z,98606.89
2018-06-01T16:06:47.180Z,98614.69
2018-06-01T16:09:15.295Z,98615.41
2018-06-01T16:11:43.436Z,98618.77
2018-06-01T16:14:11.588Z,98617.59
2018-06-01T16:16:39.763Z,98618.80
2018-06-01T16:19:07.898Z,98619.80
2018-06-01T16:21:36.039Z,98617.48
2018-06-01T16:24:04.161Z,98618.42
2018-06-01T16:26:32.323Z,98623.94
2018-06-01T16:29:00.828Z,98619.84
2018-06-01T16:31:28.960Z,98620.48
2018-06-01T16:33:57.112Z,98617.66
2018-06-01T16:36:25.247Z,98619.14
2018-06-01T16:38:53.356Z,98628.98
2018-06-01T16:41:21.567Z,98621.84
2018-06-01T16:43:49.704Z,98619.82
2018-06-01T16:46:17.840Z,98613.89
2018-06-01T16:48:46.068Z,98606.84
2018-06-01T16:51:14.184Z,98604.23
2018-06-01T16:53:42.345Z,98601.67
2018-06-01T16:56:10.482Z,98591.90
2018-06-01T16:58:38.624Z,98601.94
2018-06-01T17:01:06.775Z,98602.05
2018-06-01T17:03:34.915Z,98600.21
2018-06-01T17:06:03.031Z,98608.00
2018-06-01T17:08:31.191Z,98596.89
2018-06-01T17:10:59.310Z,98603.81
2018-06-01T17:13:27.446Z,98606.36
2018-06-01T17:15:55.573Z,98611.43
2018-06-01T17:18:23.717Z,98615.48
2018-06-01T17:20:51.848Z,98619.45
2018-06-01T17:23:19.989Z,98624.06
2018-06-01T17:25:48.185Z,98627.33
2018-06-01T17:28:16.347Z,98627.56
2018-06-01T17:30:44.478Z,98633.14
2018-06-01T17:33:12.651Z,98627.00
2018-06-01T17:35:40.808Z,98633.14
2018-06-01T17:38:08.920Z,98632.00
2018-06-01T17:40:37.036Z,98636.50
2018-06-01T17:43:05.190Z,98642.59
2018-06-01T17:45:33.364Z,98640.98
2018-06-01T17:48:01.479Z,98645.34
2018-06-01T17:50:29.593Z,98646.73
2018-06-01T17:52:57.717Z,98645.45
2018-06-01T17:55:25.931Z,98646.77
2018-06-01T17:57:54.072Z,98645.89
2018-06-01T18:00:22.204Z,98645.95
2018-06-01T18:02:50.346Z,98640.73
2018-06-01T18:05:18.476Z,98636.97
2018-06-01T18:07:46.625Z,98631.07
2018-06-01T18:10:14.795Z,98641.38
2018-06-01T18:12:42.901Z,98643.34
2018-06-01T18:15:11.023Z,98641.27
2018-06-01T18:17:39.195Z,98643.44
2018-06-01T18:20:07.304Z,98645.17
2018-06-01T18:22:35.492Z,98641.28
2018-06-01T18:25:03.581Z,98641.64
2018-06-01T18:27:31.702Z,98638.86
2018-06-01T18:29:59.810Z,98641.94
2018-06-01T18:32:27.953Z,98642.94
2018-06-01T18:34:56.071Z,98645.56
2018-06-01T18:37:24.215Z,98636.91
2018-06-01T18:39:53.548Z,98634.02
2018-06-01T18:42:21.720Z,98643.27
2018-06-01T18:44:49.850Z,98634.56
2018-06-01T18:47:17.974Z,98644.09
2018-06-01T18:49:46.074Z,98633.62
2018-06-01T18:52:14.219Z,98641.48
2018-06-01T18:54:42.400Z,98644.23
2018-06-01T18:57:10.527Z,98639.95
2018-06-01T18:59:38.637Z,98640.27
2018-06-01T19:02:06.784Z,98642.91
2018-06-01T19:04:34.901Z,98648.83
2018-06-01T19:07:03.005Z,98652.42
2018-06-01T19:09:31.878Z,98658.89
2018-06-01T19:12:00.000Z,98662.28
2018-06-01T19:14:28.125Z,98668.28
2018-06-01T19:16:56.275Z,98671.11
2018-06-01T19:19:24.391Z,98671.06
2018-06-01T19:21:52.530Z,98677.66
2018-06-01T19:24:20.670Z,98676.70
2018-06-01T19:26:48.789Z,98682.25
2018-06-01T19:29:16.913Z,98681.30
2018-06-01T19:31:45.042Z,98677.96
2018-06-01T19:34:13.170Z,98679.20
2018-06-01T19:36:41.280Z,98680.81
2018-06-01T19:39:09.425Z,98682.42
2018-06-01T19:41:37.550Z,98684.77
2018-06-01T19:44:05.693Z,98686.38
2018-06-01T19:46:33.811Z,98683.10
2018-06-01T19:49:01.935Z,98688.33
2018-06-01T19:51:30.064Z,98695.56
2018-06-01T19:53:58.204Z,98689.34
2018-06-01T19:56:26.337Z,98689.52
2018-06-01T19:58:54.602Z,98694.02
2018-06-01T20:01:22.836Z,98697.28
2018-06-01T20:03:50.978Z,98693.30
2018-06-01T20:06:19.101Z,98692.33
2018-06-01T20:08:47.229Z,98706.16
2018-06-01T20:11:15.382Z,98702.17
2018-06-01T20:13:43.497Z,98700.09
2018-06-01T20:16:11.642Z,98706.98
2018-06-01T20:18:39.787Z,98714.02
2018-06-01T20:21:07.977Z,98716.34
2018-06-01T20:23:36.116Z,98714.49
2018-06-01T20:26:04.273Z,98716.67
2018-06-01T20:28:32.390Z,98715.14
2018-06-01T20:31:00.555Z,98712.50
2018-06-01T20:33:28.673Z,98711.93
2018-06-01T20:35:56.807Z,98711.05
2018-06-01T20:38:24.946Z,98717.62
2018-06-01T20:40:53.074Z,98719.03
2018-06-01T20:43:21.201Z,98715.81
2018-06-01T20:45:49.347Z,98719.56
2018-06-01T20:48:17.470Z,98722.43
2018-06-01T20:50:45.601Z,98728.24
2018-06-01T20:53:13.747Z,98732.30
2018-06-01T20:55:41.862Z,98733.88
2018-06-01T20:58:09.998Z,98734.58
2018-06-01T21:00:38.138Z,98737.88
2018-06-01T21:03:06.294Z,98745.03
2018-06-01T21:05:34.440Z,98735.87
2018-06-01T21:08:02.559Z,98743.93
2018-06-01T21:10:30.671Z,98736.16
2018-06-01T21:12:58.787Z,98739.23
2018-06-01T21:15:26.924Z,98746.71
2018-06-01T21:17:55.049Z,98745.53
2018-06-01T21:20:23.166Z,98745.94
2018-06-01T21:22:51.310Z,98749.20
2018-06-01T21:25:19.442Z,98746.96
2018-06-01T21:27:47.579Z,98746.45
2018-06-01T21:30:15.735Z,98745.34
2018-06-01T21:32:43.857Z,98749.59
2018-06-01T21:35:11.997Z,98755.64
2018-06-01T21:37:40.123Z,98751.87
2018-06-01T21:40:08.247Z,98751.39
2018-06-01T21:42:36.384Z,98760.33
2018-06-01T21:45:04.528Z,98757.28
2018-06-01T21:47:32.654Z,98756.55
2018-06-01T21:50:00.802Z,98755.34
2018-06-01T21:52:28.962Z,98753.64
2018-06-01T21:54:57.095Z,98746.13
2018-06-01T21:57:25.233Z,98744.76
2018-06-01T21:59:53.380Z,98738.34
2018-06-01T22:02:21.511Z,98740.42
2018-06-01T22:04:49.687Z,98741.52
2018-06-01T22:07:17.823Z,98742.39
2018-06-01T22:09:46.071Z,98739.98
2018-06-01T22:12:14.150Z,98742.20
2018-06-01T22:14:43.356Z,98738.19
2018-06-01T22:17:11.491Z,98749.19
2018-06-01T22:19:39.777Z,98740.64
2018-06-01T22:22:07.931Z,98746.19
2018-06-01T22:24:36.237Z,98749.66
2018-06-01T22:27:04.375Z,98748.57
2018-06-01T22:29:32.562Z,98749.77
2018-06-01T22:32:00.701Z,98749.30
2018-06-01T22:34:28.834Z,98751.45
2018-06-01T22:36:56.976Z,98752.45
2018-06-01T22:39:25.135Z,98755.89
2018-06-01T22:41:53.258Z,98770.78
2018-06-01T22:44:21.387Z,98768.14
2018-06-01T22:46:49.544Z,98770.18
2018-06-01T22:49:17.659Z,98763.95
2018-06-01T22:51:45.798Z,98761.97
2018-06-01T22:54:13.934Z,98766.09
2018-06-01T22:56:42.058Z,98763.64
2018-06-01T22:59:10.193Z,98772.52
2018-06-01T23:01:38.329Z,98767.97
2018-06-01T23:04:06.447Z,98773.12
2018-06-01T23:06:34.589Z,98765.58
2018-06-01T23:09:02.713Z,98770.98
2018-06-01T23:11:30.833Z,98764.11
2018-06-01T23:13:58.957Z,98774.84
2018-06-01T23:16:27.082Z,98772.28
2018-06-01T23:18:55.192Z,98774.19
2018-06-01T23:21:23.315Z,98773.84
2018-06-01T23:23:51.467Z,98775.25
2018-06-01T23:26:19.606Z,98774.21
2018-06-01T23:28:47.765Z,98775.56
2018-06-01T23:31:15.869Z,98779.77
2018-06-01T23:33:43.982Z,98783.42
2018-06-01T23:36:12.134Z,98780.17
2018-06-01T23:38:40.254Z,98778.16
2018-06-01T23:41:08.439Z,98778.47
2018-06-01T23:43:36.569Z,98787.59
2018-06-01T23:46:04.693Z,98772.36
2018-06-01T23:48:32.915Z,98783.24
2018-06-01T23:51:01.049Z,98787.84
2018-06-01T23:53:29.197Z,98781.77
2018-06-01T23:55:57.344Z,98781.77
2018-06-01T23:58:25.532Z,98786.00
